This is the latest recevied weather packets stored in our database for station/object OH6NMY. If no packets are shown the sender has not sent any weather packets the latest 10 day(s).
| Time | Temp. | Humidity | Pressure | Rain* | Wind** | Luminosity | Snow |
|---|---|---|---|---|---|---|---|
| 1777646617 | 17.78° C | 39% | 1015.8 hPa | 0 mm | - | - | - |
| 1777644994 | 18.33° C | 37% | 1016.3 hPa | 0 mm | - | - | - |
| 1777631194 | 16.67° C | 43% | 1018.1 hPa | 0 mm | - | - | - |
| 1777630114 | 16.67° C | 44% | 1018.3 hPa | 0 mm | - | - | - |
| 1777627414 | 15.56° C | 47% | 1018.7 hPa | 0 mm | - | - | - |
| 1777626334 | 15° C | 48% | 1018.9 hPa | 0 mm | - | - | - |
| 1777625794 | 15° C | 50% | 1019.1 hPa | 0 mm | - | - | - |
| 1777620934 | 12.22° C | 62% | 1019.4 hPa | 0 mm | - | - | - |
| 1777617694 | 11.11° C | 67% | 1019.8 hPa | 0 mm | - | - | - |
| 1777617154 | 11.11° C | 66% | 1019.7 hPa | 0 mm | - | - | - |
| 1777613507 | 7.78° C | 77% | 1019.9 hPa | 0 mm | - | - | - |
| 1777610674 | 7.22° C | 81% | 1019.8 hPa | 0 mm | - | - | - |
| 1777606894 | 5.56° C | 87% | 1020.4 hPa | 0 mm | - | - | - |
| 1777602034 | 3.89° C | 91% | 1020.4 hPa | 0 mm | - | - | - |
| 1777600414 | 3.89° C | 91% | 1020.4 hPa | 0 mm | - | - | - |
| 1777599334 | 3.89° C | 89% | 1020.7 hPa | 0 mm | - | - | - |
| 1777596634 | 3.33° C | 91% | 1020.7 hPa | 0 mm | - | - | - |
| 1777594474 | 3.89° C | 90% | 1020.7 hPa | 0 mm | - | - | - |
| 1777593394 | 3.89° C | 89% | 1020.5 hPa | 0 mm | - | - | - |
| 1777592986 | 3.89° C | 89% | 1020.8 hPa | 0 mm | - | - | - |
| 1777591234 | 5.56° C | 86% | 1020.9 hPa | 0 mm | - | - | - |
| 1777590694 | 6.11° C | 85% | 1021.1 hPa | 0 mm | - | - | - |
| 1777587454 | 7.22° C | 81% | 1020.9 hPa | 0 mm | - | - | - |
| 1777585967 | 8.33° C | 78% | 1020.7 hPa | 0 mm | - | - | - |
| 1777585294 | 8.33° C | 77% | 1020.7 hPa | 0 mm | - | - | - |
* Rain latest hour (hover to see other rain measurements)
** Current wind speed in m/s (hover to see current wind gust speed)